Flight Track Log - Related Links

Times and Time Zones

All times are in EDT time to prevent confusion due to time zone crossing. See the SWA1276 flight status page for this flight to view local times or setup timezone preferences in your user account.

Time Position Orientation Groundspeed Altitude Reporting Facility
EDT Latitude Longitude Course Direction KTS MPH feet Rate Location/Type
Sun 03:28:53 PM 39.2833 -94.7333 226° Southwest 149 171 2,600  Level Kansas City TRACON
Sun 03:29:53 PM 39.2333 -94.7333 180° South 235 270 5,200 2,734 Climbing Kansas City TRACON
Sun 03:30:12 PM 39.2094 -94.7247 164° South 232 267 6,200 3,333 Climbing Kansas City Center
Sun 03:31:14 PM 39.1422 -94.7114 171° South 252 290 9,700 1,824 Climbing Kansas City Center
Sun 03:32:17 PM 39.1008 -94.6200 120° Southeast 313 360 10,000 145 Climbing Kansas City Center
Sun 03:33:18 PM 39.0994 -94.5078 91° East 327 376 10,000 1,377 Level Kansas City Center
Sun 03:34:19 PM 39.0983 -94.3950 91° East 330 380 12,800 3,197 Climbing Kansas City Center
Sun 03:35:20 PM 39.0967 -94.2508 91° East 361 415 16,500 3,168 Climbing Kansas City Center
Sun 03:36:24 PM 39.0953 -94.1236 91° East 371 427 19,400 2,855 Climbing Kansas City Center
Sun 03:37:24 PM 39.0847 -93.9644 95° East 399 459 22,400 2,710 Climbing Kansas City Center
Sun 03:38:28 PM 39.0753 -93.8231 95° East 412 474 25,000 2,468 Climbing Kansas City Center
Sun 03:39:28 PM 39.0644 -93.6539 95° East 425 489 27,500 2,146 Climbing Kansas City Center
Sun 03:40:31 PM 39.0547 -93.5042 95° East 437 503 29,400 1,728 Climbing Kansas City Center
Sun 03:41:33 PM 39.0453 -93.3417 94° East 447 514 31,100 1,756 Climbing Kansas City Center
Sun 03:42:34 PM 39.0333 -93.1778 95° East 459 528 33,000 1,694 Climbing Kansas City Center
Sun 03:43:37 PM 39.0200 -93.0142 96° East 463 533 34,600 1,597 Climbing Kansas City Center
Sun 03:44:38 PM 39.0017 -92.8169 97° East 466 536 36,300 1,328 Climbing Kansas City Center
Sun 03:45:39 PM 38.9867 -92.6567 97° East 469 540 37,300 1,056 Climbing Kansas City Center
Sun 03:46:43 PM 38.9536 -92.4914 104° East 476 548 38,500 823 Climbing Kansas City Center
Sun 03:47:43 PM 38.8772 -92.3508 125° Southeast 477 549 39,000 242 Climbing Kansas City Center
Sun 03:48:47 PM 38.7981 -92.2108 126° Southeast 480 552 39,000  Level Kansas City Center
Sun 03:49:48 PM 38.7058 -92.0444 125° Southeast 476 548 39,000  Level Kansas City Center
Sun 03:50:50 PM 38.6286 -91.9044 125° Southeast 477 549 39,000  Level Kansas City Center
Sun 03:51:53 PM 38.5511 -91.7675 126° Southeast 475 547 39,000  Level Kansas City Center
Sun 03:52:55 PM 38.4747 -91.6300 125° Southeast 472 543 39,000  Level Kansas City Center
Sun 03:53:55 PM 38.3961 -91.4944 126° Southeast 470 541 39,000  Level Kansas City Center
Sun 03:54:59 PM 38.3206 -91.3597 126° Southeast 469 540 39,000  Level Kansas City Center
Sun 03:56:00 PM 38.2439 -91.2253 126° Southeast 469 540 39,000  Level Kansas City Center
Sun 03:57:04 PM 38.1689 -91.0928 126° Southeast 468 539 39,000  Level Kansas City Center
Sun 03:58:04 PM 38.0789 -90.9342 126° Southeast 466 536 39,000  Level Kansas City Center
Sun 03:59:11 PM 38.0022 -90.8011 126° Southeast 470 541 39,000  Level Kansas City Center
Sun 04:00:21 PM 37.9111 -90.6431 126° Southeast 469 540 39,000  Level Kansas City Center
Sun 04:01:22 PM 37.8628 -90.4925 112° Southeast 466 536 39,000 -97 Level Kansas City Center
Sun 04:02:25 PM 37.8256 -90.3319 106° East 473 544 38,800 -766 Descending Kansas City Center
Sun 04:04:30 PM 37.7453 -89.9833 106° East 473 544 36,600 -1,038 Descending Kansas City Center
Sun 04:05:30 PM 37.7092 -89.8306 107° East 467 537 35,600 -793 Descending Kansas City Center
Sun 04:06:31 PM 37.6733 -89.6803 107° East 459 528 35,000 -624 Descending Kansas City Center
Sun 04:07:35 PM 37.6381 -89.5336 107° East 451 519 34,300 -898 Descending Kansas City Center
Sun 04:08:38 PM 37.5972 -89.3606 107° East 434 499 33,100 -629 Descending Kansas City Center
Sun 04:09:39 PM 37.5628 -89.2192 107° East 423 487 33,000 -52 Descending Kansas City Center
Sun 04:10:34 PM 37.5361 -89.1094 107° East 416 479 33,000  Level Memphis Center
Sun 04:11:34 PM 37.5011 -88.9636 107° East 416 479 33,000  Level Memphis Center
Sun 04:12:34 PM 37.4661 -88.8206 107° East 421 484 33,000  Level Memphis Center
Sun 04:13:34 PM 37.4308 -88.6750 107° East 421 484 33,000 -150 Level Memphis Center
Sun 04:14:34 PM 37.3956 -88.5347 108° East 421 484 32,700 -600 Descending Memphis Center
Sun 04:15:34 PM 37.3581 -88.3922 108° East 421 484 31,800 -1,000 Descending Memphis Center
Sun 04:16:34 PM 37.3244 -88.2494 106° East 421 484 30,700 -1,050 Descending Memphis Center
Sun 04:17:34 PM 37.2886 -88.1097 108° East 421 484 29,700 -1,050 Descending Memphis Center
Sun 04:18:34 PM 37.2461 -87.9544 109° East 426 490 28,600 -950 Descending Memphis Center
Sun 04:19:34 PM 37.2064 -87.8386 113° Southeast 413 475 27,800 -900 Descending Memphis Center
Sun 04:20:34 PM 37.1456 -87.7233 123° Southeast 403 464 26,800 -1,000 Descending Memphis Center
Sun 04:21:34 PM 37.0869 -87.6108 123° Southeast 392 451 25,800 -1,350 Descending Memphis Center
Sun 04:22:34 PM 37.0281 -87.4986 123° Southeast 392 451 24,100 -1,800 Descending Memphis Center
Sun 04:22:54 PM 37.0042 -87.4553 125° Southeast 384 442 23,400 -1,800 Descending Memphis Center
Sun 04:23:34 PM 36.9714 -87.3864 121° Southeast 387 445 22,300 -1,791 Descending Memphis Center
Sun 04:24:01 PM 36.9389 -87.3356 129° Southeast 368 423 21,400 -1,800 Descending Memphis Center
Sun 04:24:34 PM 36.9144 -87.2822 120° Southeast 381 438 20,500 -1,677 Descending Memphis Center
Sun 04:25:34 PM 36.8556 -87.1728 124° Southeast 364 419 18,800 -1,600 Descending Memphis Center
Sun 04:26:34 PM 36.7947 -87.0819 130° Southeast 353 406 17,300 -1,650 Descending Memphis Center
Sun 04:27:34 PM 36.7100 -87.0311 154° Southeast 330 380 15,500 -1,800 Descending Memphis Center
Sun 04:28:34 PM 36.6275 -86.9828 155° Southeast 328 377 13,700 -1,750 Descending Memphis Center
Sun 04:29:34 PM 36.5511 -86.9369 154° Southeast 318 366 12,000 -1,650 Descending Memphis Center
Sun 04:30:34 PM 36.4747 -86.8886 153° Southeast 307 353 10,400 -1,250 Descending Memphis Center
Sun 04:31:34 PM 36.4050 -86.8478 155° Southeast 294 338 9,500 -1,050 Descending Memphis Center
Sun 04:32:34 PM 36.3433 -86.8067 152° Southeast 288 331 8,300 -1,250 Descending Memphis Center
Sun 04:33:34 PM 36.2756 -86.7708 157° South 277 319 7,000 -1,300 Descending Memphis Center
Sun 04:34:34 PM 36.2003 -86.7589 173° South 253 291 5,700 -1,000 Descending Memphis Center
Sun 04:35:34 PM 36.1342 -86.7875 199° South 253 291 5,000 -350 Descending Memphis Center
Sun 04:36:34 PM 36.0767 -86.8131 200° South 239 275 5,000 -250 Level Memphis Center
Sun 04:37:34 PM 36.0264 -86.8100 177° South 185 213 4,500 -950 Descending Memphis Center
Sun 04:38:34 PM 36.0269 -86.7561 89° East 115 132 3,100 -1,300 Descending Memphis Center
Sun 04:39:34 PM 36.0486 -86.7089 60° Northeast 115 132 1,900 -1,050 Descending Memphis Center
Sun 04:40:34 PM 36.0836 -86.6947 18° North 115 132 1,000 3,550 Descending Memphis Center
Sun 04:41:34 PM 36.1206 -86.6775 21° North 127 146 9,000 1,000 Climbing Memphis Center
Sun 04:42:34 PM 36.1167 -86.6133 94° East 132 152 3,000 -3,250 Descending Memphis Center
Sun 04:43:34 PM 36.0728 -86.6078 174° South 127 146 2,500 -200 Descending Memphis Center
Sun 04:44:34 PM 36.0322 -86.6481 219° Southwest 169 194 2,600 -350 Climbing Memphis Center
Sun 04:45:34 PM 36.0525 -86.6986 296° West 143 165 1,800 -850 Descending Memphis Center
Sun 04:46:34 PM 36.0897 -86.6944 North 99 114 900 -500 Descending Memphis Center
Sun 04:47:34 PM 36.1192 -86.7033 346° North 99 114 800 -100 Descending Memphis Center
Sun 04:49:00 PM 36.1245 -86.6782 22° Northeast  Level Estimated
Sun 04:56:00 PM 36.1245 -86.6782 22° Northeast  Level Estimated

Login

Don't have an account? Register now (free) for customized features, flight alerts, and more!